sensor_id;sensor_type;location;lat;lon;timestamp;P1;durP1;ratioP1;P2;durP2;ratioP2
69569;SDS011;56781;42.292;23.146;2022-12-18T00:01:25;40.75;;;15.30;;
69569;SDS011;56781;42.292;23.146;2022-12-18T00:03:55;34.40;;;13.52;;
69569;SDS011;56781;42.292;23.146;2022-12-18T00:06:23;36.43;;;13.30;;
69569;SDS011;56781;42.292;23.146;2022-12-18T00:08:51;29.05;;;12.80;;
69569;SDS011;56781;42.292;23.146;2022-12-18T00:11:20;25.75;;;11.75;;
69569;SDS011;56781;42.292;23.146;2022-12-18T00:13:49;22.48;;;10.13;;
69569;SDS011;56781;42.292;23.146;2022-12-18T00:16:19;18.80;;;9.20;;
69569;SDS011;56781;42.292;23.146;2022-12-18T00:18:48;21.73;;;10.27;;
69569;SDS011;56781;42.292;23.146;2022-12-18T00:21:16;18.48;;;9.05;;
69569;SDS011;56781;42.292;23.146;2022-12-18T00:23:43;21.52;;;9.70;;
69569;SDS011;56781;42.292;23.146;2022-12-18T00:26:12;23.48;;;10.15;;
69569;SDS011;56781;42.292;23.146;2022-12-18T00:28:44;17.98;;;7.72;;
69569;SDS011;56781;42.292;23.146;2022-12-18T00:31:13;12.80;;;7.13;;
69569;SDS011;56781;42.292;23.146;2022-12-18T00:33:42;13.00;;;7.03;;
69569;SDS011;56781;42.292;23.146;2022-12-18T00:36:11;14.85;;;6.50;;
69569;SDS011;56781;42.292;23.146;2022-12-18T00:38:46;14.90;;;6.43;;
69569;SDS011;56781;42.292;23.146;2022-12-18T00:41:14;11.15;;;5.30;;
69569;SDS011;56781;42.292;23.146;2022-12-18T00:44:01;10.40;;;5.53;;
69569;SDS011;56781;42.292;23.146;2022-12-18T00:46:29;13.82;;;6.03;;
69569;SDS011;56781;42.292;23.146;2022-12-18T00:48:56;10.55;;;4.93;;
69569;SDS011;56781;42.292;23.146;2022-12-18T00:51:24;11.82;;;4.90;;
69569;SDS011;56781;42.292;23.146;2022-12-18T00:53:51;12.40;;;5.10;;
69569;SDS011;56781;42.292;23.146;2022-12-18T00:56:19;8.87;;;4.67;;
69569;SDS011;56781;42.292;23.146;2022-12-18T00:58:46;14.52;;;6.53;;
69569;SDS011;56781;42.292;23.146;2022-12-18T01:01:13;17.63;;;7.68;;
69569;SDS011;56781;42.292;23.146;2022-12-18T01:03:41;15.63;;;7.35;;
69569;SDS011;56781;42.292;23.146;2022-12-18T01:06:09;14.88;;;6.47;;
69569;SDS011;56781;42.292;23.146;2022-12-18T01:08:38;11.60;;;5.63;;
69569;SDS011;56781;42.292;23.146;2022-12-18T01:11:09;10.90;;;5.45;;
69569;SDS011;56781;42.292;23.146;2022-12-18T01:13:39;9.73;;;5.20;;
69569;SDS011;56781;42.292;23.146;2022-12-18T01:16:07;9.20;;;4.45;;
69569;SDS011;56781;42.292;23.146;2022-12-18T01:18:35;10.10;;;4.60;;
69569;SDS011;56781;42.292;23.146;2022-12-18T01:21:06;9.30;;;4.50;;
69569;SDS011;56781;42.292;23.146;2022-12-18T01:23:35;6.18;;;2.83;;
69569;SDS011;56781;42.292;23.146;2022-12-18T01:26:09;4.97;;;1.95;;
69569;SDS011;56781;42.292;23.146;2022-12-18T01:28:38;7.63;;;3.40;;
69569;SDS011;56781;42.292;23.146;2022-12-18T01:31:17;4.45;;;2.22;;
69569;SDS011;56781;42.292;23.146;2022-12-18T01:33:50;7.53;;;3.57;;
69569;SDS011;56781;42.292;23.146;2022-12-18T01:36:20;8.27;;;3.08;;
69569;SDS011;56781;42.292;23.146;2022-12-18T01:38:49;6.63;;;2.88;;
69569;SDS011;56781;42.292;23.146;2022-12-18T01:41:17;6.50;;;2.80;;
69569;SDS011;56781;42.292;23.146;2022-12-18T01:43:49;7.07;;;3.30;;
69569;SDS011;56781;42.292;23.146;2022-12-18T01:46:19;7.30;;;3.17;;
69569;SDS011;56781;42.292;23.146;2022-12-18T01:48:49;5.38;;;2.72;;
69569;SDS011;56781;42.292;23.146;2022-12-18T01:51:24;6.88;;;3.58;;
69569;SDS011;56781;42.292;23.146;2022-12-18T01:53:53;6.63;;;3.28;;
69569;SDS011;56781;42.292;23.146;2022-12-18T01:56:20;6.22;;;2.72;;
69569;SDS011;56781;42.292;23.146;2022-12-18T01:58:52;7.47;;;3.03;;
69569;SDS011;56781;42.292;23.146;2022-12-18T02:01:25;5.82;;;2.78;;
69569;SDS011;56781;42.292;23.146;2022-12-18T02:03:52;6.68;;;2.95;;
69569;SDS011;56781;42.292;23.146;2022-12-18T02:06:37;6.80;;;3.33;;
69569;SDS011;56781;42.292;23.146;2022-12-18T02:09:15;8.20;;;3.35;;
69569;SDS011;56781;42.292;23.146;2022-12-18T02:11:52;9.27;;;4.00;;
69569;SDS011;56781;42.292;23.146;2022-12-18T02:17:28;8.07;;;3.70;;
69569;SDS011;56781;42.292;23.146;2022-12-18T02:28:40;7.53;;;3.72;;
69569;SDS011;56781;42.292;23.146;2022-12-18T02:31:11;11.15;;;4.70;;
69569;SDS011;56781;42.292;23.146;2022-12-18T02:33:44;9.77;;;4.10;;
69569;SDS011;56781;42.292;23.146;2022-12-18T02:36:12;9.23;;;4.72;;
69569;SDS011;56781;42.292;23.146;2022-12-18T02:38:42;8.03;;;4.13;;
69569;SDS011;56781;42.292;23.146;2022-12-18T02:41:12;8.70;;;3.63;;
69569;SDS011;56781;42.292;23.146;2022-12-18T02:43:45;10.55;;;4.93;;
69569;SDS011;56781;42.292;23.146;2022-12-18T02:46:23;10.57;;;5.18;;
69569;SDS011;56781;42.292;23.146;2022-12-18T02:49:08;10.40;;;5.25;;
69569;SDS011;56781;42.292;23.146;2022-12-18T02:54:27;9.02;;;4.60;;
69569;SDS011;56781;42.292;23.146;2022-12-18T02:57:16;8.43;;;4.63;;
69569;SDS011;56781;42.292;23.146;2022-12-18T02:59:58;6.13;;;2.65;;
69569;SDS011;56781;42.292;23.146;2022-12-18T03:05:07;9.50;;;4.63;;
69569;SDS011;56781;42.292;23.146;2022-12-18T03:10:27;8.88;;;4.53;;
69569;SDS011;56781;42.292;23.146;2022-12-18T03:13:31;8.80;;;4.38;;
69569;SDS011;56781;42.292;23.146;2022-12-18T03:16:10;8.38;;;4.68;;
69569;SDS011;56781;42.292;23.146;2022-12-18T03:18:43;10.50;;;4.97;;
69569;SDS011;56781;42.292;23.146;2022-12-18T03:21:14;11.35;;;5.50;;
69569;SDS011;56781;42.292;23.146;2022-12-18T03:23:47;12.27;;;5.18;;
69569;SDS011;56781;42.292;23.146;2022-12-18T03:26:19;10.50;;;5.35;;
69569;SDS011;56781;42.292;23.146;2022-12-18T03:28:52;11.48;;;5.82;;
69569;SDS011;56781;42.292;23.146;2022-12-18T03:31:23;10.17;;;5.40;;
69569;SDS011;56781;42.292;23.146;2022-12-18T03:33:57;10.20;;;5.15;;
69569;SDS011;56781;42.292;23.146;2022-12-18T03:36:27;13.32;;;6.22;;
69569;SDS011;56781;42.292;23.146;2022-12-18T03:38:55;15.90;;;7.32;;
69569;SDS011;56781;42.292;23.146;2022-12-18T03:43:57;10.07;;;4.80;;
69569;SDS011;56781;42.292;23.146;2022-12-18T03:46:45;9.70;;;4.10;;
69569;SDS011;56781;42.292;23.146;2022-12-18T03:49:30;7.03;;;3.63;;
69569;SDS011;56781;42.292;23.146;2022-12-18T03:52:30;9.77;;;3.85;;
69569;SDS011;56781;42.292;23.146;2022-12-18T03:55:03;6.05;;;2.55;;
69569;SDS011;56781;42.292;23.146;2022-12-18T03:57:33;8.57;;;3.40;;
69569;SDS011;56781;42.292;23.146;2022-12-18T04:00:09;8.55;;;3.60;;
69569;SDS011;56781;42.292;23.146;2022-12-18T04:02:40;8.93;;;3.88;;
69569;SDS011;56781;42.292;23.146;2022-12-18T04:05:12;6.72;;;3.17;;
69569;SDS011;56781;42.292;23.146;2022-12-18T04:07:42;8.25;;;3.10;;
69569;SDS011;56781;42.292;23.146;2022-12-18T04:10:11;7.70;;;3.70;;
69569;SDS011;56781;42.292;23.146;2022-12-18T04:12:40;7.38;;;3.63;;
69569;SDS011;56781;42.292;23.146;2022-12-18T04:15:07;9.15;;;3.90;;
69569;SDS011;56781;42.292;23.146;2022-12-18T04:17:35;8.15;;;4.00;;
69569;SDS011;56781;42.292;23.146;2022-12-18T04:20:02;7.10;;;3.55;;
69569;SDS011;56781;42.292;23.146;2022-12-18T04:22:29;6.63;;;2.90;;
69569;SDS011;56781;42.292;23.146;2022-12-18T04:24:56;6.28;;;3.10;;
69569;SDS011;56781;42.292;23.146;2022-12-18T04:27:23;9.02;;;4.55;;
69569;SDS011;56781;42.292;23.146;2022-12-18T04:29:50;9.50;;;3.55;;
69569;SDS011;56781;42.292;23.146;2022-12-18T04:32:18;6.30;;;3.08;;
69569;SDS011;56781;42.292;23.146;2022-12-18T04:34:45;8.13;;;3.70;;
69569;SDS011;56781;42.292;23.146;2022-12-18T04:37:12;7.55;;;3.20;;
69569;SDS011;56781;42.292;23.146;2022-12-18T04:39:39;6.88;;;3.33;;
69569;SDS011;56781;42.292;23.146;2022-12-18T04:42:06;6.45;;;3.30;;
69569;SDS011;56781;42.292;23.146;2022-12-18T04:44:33;6.40;;;3.20;;
69569;SDS011;56781;42.292;23.146;2022-12-18T04:47:00;7.97;;;3.33;;
69569;SDS011;56781;42.292;23.146;2022-12-18T04:49:27;5.13;;;2.38;;
69569;SDS011;56781;42.292;23.146;2022-12-18T04:51:55;5.50;;;2.40;;
69569;SDS011;56781;42.292;23.146;2022-12-18T04:54:22;5.97;;;2.42;;
69569;SDS011;56781;42.292;23.146;2022-12-18T04:56:49;5.38;;;2.28;;
69569;SDS011;56781;42.292;23.146;2022-12-18T04:59:16;6.53;;;2.50;;
69569;SDS011;56781;42.292;23.146;2022-12-18T05:01:43;7.97;;;2.95;;
69569;SDS011;56781;42.292;23.146;2022-12-18T05:04:10;7.13;;;3.10;;
69569;SDS011;56781;42.292;23.146;2022-12-18T05:06:37;5.60;;;2.63;;
69569;SDS011;56781;42.292;23.146;2022-12-18T05:09:05;7.10;;;2.80;;
69569;SDS011;56781;42.292;23.146;2022-12-18T05:11:32;5.30;;;2.47;;
69569;SDS011;56781;42.292;23.146;2022-12-18T05:13:59;6.45;;;2.90;;
69569;SDS011;56781;42.292;23.146;2022-12-18T05:16:26;7.63;;;3.28;;
69569;SDS011;56781;42.292;23.146;2022-12-18T05:18:53;5.50;;;1.77;;
69569;SDS011;56781;42.292;23.146;2022-12-18T05:21:20;6.38;;;2.55;;
69569;SDS011;56781;42.292;23.146;2022-12-18T05:23:47;6.93;;;3.03;;
69569;SDS011;56781;42.292;23.146;2022-12-18T05:26:16;6.70;;;2.20;;
69569;SDS011;56781;42.292;23.146;2022-12-18T05:28:44;4.50;;;2.08;;
69569;SDS011;56781;42.292;23.146;2022-12-18T05:31:12;4.95;;;1.98;;
69569;SDS011;56781;42.292;23.146;2022-12-18T05:33:39;7.32;;;2.97;;
69569;SDS011;56781;42.292;23.146;2022-12-18T05:36:07;7.30;;;2.77;;
69569;SDS011;56781;42.292;23.146;2022-12-18T05:38:36;7.28;;;2.40;;
69569;SDS011;56781;42.292;23.146;2022-12-18T05:41:05;4.88;;;1.67;;
69569;SDS011;56781;42.292;23.146;2022-12-18T05:43:34;5.88;;;2.88;;
69569;SDS011;56781;42.292;23.146;2022-12-18T05:46:03;9.32;;;3.92;;
69569;SDS011;56781;42.292;23.146;2022-12-18T05:48:34;6.30;;;2.70;;
69569;SDS011;56781;42.292;23.146;2022-12-18T05:51:07;6.30;;;2.50;;
69569;SDS011;56781;42.292;23.146;2022-12-18T05:53:36;7.07;;;2.58;;
69569;SDS011;56781;42.292;23.146;2022-12-18T05:56:06;5.00;;;2.30;;
69569;SDS011;56781;42.292;23.146;2022-12-18T05:58:34;4.38;;;1.95;;
69569;SDS011;56781;42.292;23.146;2022-12-18T06:01:06;5.63;;;2.70;;
69569;SDS011;56781;42.292;23.146;2022-12-18T06:03:35;6.10;;;2.35;;
69569;SDS011;56781;42.292;23.146;2022-12-18T06:06:02;6.43;;;2.92;;
69569;SDS011;56781;42.292;23.146;2022-12-18T06:08:29;10.40;;;4.20;;
69569;SDS011;56781;42.292;23.146;2022-12-18T06:10:56;10.50;;;4.55;;
69569;SDS011;56781;42.292;23.146;2022-12-18T06:13:23;10.67;;;3.20;;
69569;SDS011;56781;42.292;23.146;2022-12-18T06:15:51;5.93;;;2.45;;
69569;SDS011;56781;42.292;23.146;2022-12-18T06:18:18;4.97;;;2.05;;
69569;SDS011;56781;42.292;23.146;2022-12-18T06:20:45;3.40;;;1.58;;
69569;SDS011;56781;42.292;23.146;2022-12-18T06:23:20;3.97;;;2.10;;
69569;SDS011;56781;42.292;23.146;2022-12-18T06:25:47;7.20;;;2.83;;
69569;SDS011;56781;42.292;23.146;2022-12-18T06:28:14;7.53;;;2.53;;
69569;SDS011;56781;42.292;23.146;2022-12-18T06:30:45;6.20;;;2.92;;
69569;SDS011;56781;42.292;23.146;2022-12-18T06:33:12;7.82;;;3.60;;
69569;SDS011;56781;42.292;23.146;2022-12-18T06:35:40;7.72;;;2.72;;
69569;SDS011;56781;42.292;23.146;2022-12-18T06:38:08;11.13;;;5.43;;
69569;SDS011;56781;42.292;23.146;2022-12-18T06:40:36;9.98;;;3.58;;
69569;SDS011;56781;42.292;23.146;2022-12-18T06:43:05;8.98;;;3.92;;
69569;SDS011;56781;42.292;23.146;2022-12-18T06:45:32;9.98;;;4.38;;
69569;SDS011;56781;42.292;23.146;2022-12-18T06:47:59;11.68;;;4.45;;
69569;SDS011;56781;42.292;23.146;2022-12-18T06:50:27;12.03;;;5.40;;
69569;SDS011;56781;42.292;23.146;2022-12-18T06:52:57;29.08;;;12.45;;
69569;SDS011;56781;42.292;23.146;2022-12-18T06:55:25;11.45;;;4.68;;
69569;SDS011;56781;42.292;23.146;2022-12-18T06:57:57;10.48;;;4.75;;
69569;SDS011;56781;42.292;23.146;2022-12-18T07:00:25;11.57;;;2.95;;
69569;SDS011;56781;42.292;23.146;2022-12-18T07:02:55;7.90;;;3.43;;
69569;SDS011;56781;42.292;23.146;2022-12-18T07:05:22;8.07;;;3.80;;
69569;SDS011;56781;42.292;23.146;2022-12-18T07:07:49;8.15;;;3.67;;
69569;SDS011;56781;42.292;23.146;2022-12-18T07:10:16;6.15;;;2.80;;
69569;SDS011;56781;42.292;23.146;2022-12-18T07:12:47;9.10;;;3.70;;
69569;SDS011;56781;42.292;23.146;2022-12-18T07:15:14;13.27;;;4.20;;
69569;SDS011;56781;42.292;23.146;2022-12-18T07:17:41;6.35;;;2.72;;
69569;SDS011;56781;42.292;23.146;2022-12-18T07:20:09;5.95;;;2.63;;
69569;SDS011;56781;42.292;23.146;2022-12-18T07:22:36;7.07;;;2.78;;
69569;SDS011;56781;42.292;23.146;2022-12-18T07:25:04;4.93;;;2.40;;
69569;SDS011;56781;42.292;23.146;2022-12-18T07:27:31;8.30;;;3.57;;
69569;SDS011;56781;42.292;23.146;2022-12-18T07:29:58;6.70;;;2.63;;
69569;SDS011;56781;42.292;23.146;2022-12-18T07:32:25;6.78;;;3.10;;
69569;SDS011;56781;42.292;23.146;2022-12-18T07:34:52;6.60;;;2.83;;
69569;SDS011;56781;42.292;23.146;2022-12-18T07:37:19;8.57;;;3.17;;
69569;SDS011;56781;42.292;23.146;2022-12-18T07:39:46;10.77;;;3.47;;
69569;SDS011;56781;42.292;23.146;2022-12-18T07:42:15;8.85;;;3.75;;
69569;SDS011;56781;42.292;23.146;2022-12-18T07:44:59;7.85;;;3.88;;
69569;SDS011;56781;42.292;23.146;2022-12-18T07:47:28;6.97;;;3.03;;
69569;SDS011;56781;42.292;23.146;2022-12-18T07:50:03;6.93;;;2.95;;
69569;SDS011;56781;42.292;23.146;2022-12-18T07:52:34;5.43;;;2.23;;
69569;SDS011;56781;42.292;23.146;2022-12-18T07:55:01;6.97;;;4.47;;
69569;SDS011;56781;42.292;23.146;2022-12-18T07:57:29;9.85;;;3.80;;
69569;SDS011;56781;42.292;23.146;2022-12-18T08:00:16;7.65;;;3.63;;
69569;SDS011;56781;42.292;23.146;2022-12-18T08:02:43;14.38;;;6.10;;
69569;SDS011;56781;42.292;23.146;2022-12-18T08:05:11;7.57;;;3.20;;
69569;SDS011;56781;42.292;23.146;2022-12-18T08:07:38;26.70;;;10.77;;
69569;SDS011;56781;42.292;23.146;2022-12-18T08:10:05;12.43;;;5.68;;
69569;SDS011;56781;42.292;23.146;2022-12-18T08:12:33;16.38;;;8.65;;
69569;SDS011;56781;42.292;23.146;2022-12-18T08:15:02;16.70;;;8.52;;
69569;SDS011;56781;42.292;23.146;2022-12-18T08:17:30;11.70;;;5.40;;
69569;SDS011;56781;42.292;23.146;2022-12-18T08:19:57;10.93;;;4.68;;
69569;SDS011;56781;42.292;23.146;2022-12-18T08:22:24;13.02;;;6.63;;
69569;SDS011;56781;42.292;23.146;2022-12-18T08:24:51;16.35;;;7.70;;
69569;SDS011;56781;42.292;23.146;2022-12-18T08:27:18;9.77;;;4.55;;
69569;SDS011;56781;42.292;23.146;2022-12-18T08:29:55;13.40;;;6.10;;
69569;SDS011;56781;42.292;23.146;2022-12-18T08:32:23;24.25;;;4.60;;
69569;SDS011;56781;42.292;23.146;2022-12-18T08:34:51;12.18;;;5.60;;
69569;SDS011;56781;42.292;23.146;2022-12-18T08:37:18;14.00;;;5.05;;
69569;SDS011;56781;42.292;23.146;2022-12-18T08:39:46;12.60;;;4.93;;
69569;SDS011;56781;42.292;23.146;2022-12-18T08:42:13;11.87;;;5.20;;
69569;SDS011;56781;42.292;23.146;2022-12-18T08:44:58;8.43;;;3.65;;
69569;SDS011;56781;42.292;23.146;2022-12-18T08:47:25;10.68;;;4.78;;
69569;SDS011;56781;42.292;23.146;2022-12-18T08:49:52;11.50;;;4.80;;
69569;SDS011;56781;42.292;23.146;2022-12-18T08:52:19;10.45;;;4.50;;
69569;SDS011;56781;42.292;23.146;2022-12-18T08:54:46;12.63;;;4.30;;
69569;SDS011;56781;42.292;23.146;2022-12-18T08:57:14;11.20;;;4.70;;
69569;SDS011;56781;42.292;23.146;2022-12-18T08:59:41;10.45;;;4.25;;
69569;SDS011;56781;42.292;23.146;2022-12-18T09:02:10;9.57;;;3.78;;
69569;SDS011;56781;42.292;23.146;2022-12-18T09:04:38;12.35;;;5.43;;
69569;SDS011;56781;42.292;23.146;2022-12-18T09:07:06;12.93;;;5.80;;
69569;SDS011;56781;42.292;23.146;2022-12-18T09:09:33;10.57;;;4.63;;
69569;SDS011;56781;42.292;23.146;2022-12-18T09:12:00;13.40;;;5.97;;
69569;SDS011;56781;42.292;23.146;2022-12-18T09:14:27;14.35;;;5.50;;
69569;SDS011;56781;42.292;23.146;2022-12-18T09:16:54;11.18;;;5.07;;
69569;SDS011;56781;42.292;23.146;2022-12-18T09:19:21;11.83;;;5.47;;
69569;SDS011;56781;42.292;23.146;2022-12-18T09:21:48;11.75;;;5.57;;
69569;SDS011;56781;42.292;23.146;2022-12-18T09:24:16;13.00;;;5.60;;
69569;SDS011;56781;42.292;23.146;2022-12-18T09:26:43;10.88;;;4.38;;
69569;SDS011;56781;42.292;23.146;2022-12-18T09:29:12;9.13;;;3.85;;
69569;SDS011;56781;42.292;23.146;2022-12-18T09:31:43;11.87;;;5.00;;
69569;SDS011;56781;42.292;23.146;2022-12-18T09:34:10;10.02;;;4.20;;
69569;SDS011;56781;42.292;23.146;2022-12-18T09:36:38;9.35;;;4.18;;
69569;SDS011;56781;42.292;23.146;2022-12-18T09:39:05;11.88;;;5.13;;
69569;SDS011;56781;42.292;23.146;2022-12-18T09:41:44;11.18;;;4.82;;
69569;SDS011;56781;42.292;23.146;2022-12-18T09:44:23;11.43;;;5.70;;
69569;SDS011;56781;42.292;23.146;2022-12-18T09:47:12;13.30;;;5.80;;
69569;SDS011;56781;42.292;23.146;2022-12-18T09:49:44;10.60;;;4.45;;
69569;SDS011;56781;42.292;23.146;2022-12-18T09:55:00;12.65;;;5.47;;
69569;SDS011;56781;42.292;23.146;2022-12-18T09:57:53;14.50;;;5.30;;
69569;SDS011;56781;42.292;23.146;2022-12-18T10:00:25;13.38;;;5.35;;
69569;SDS011;56781;42.292;23.146;2022-12-18T10:02:53;10.88;;;4.82;;
69569;SDS011;56781;42.292;23.146;2022-12-18T10:11:21;12.97;;;5.40;;
69569;SDS011;56781;42.292;23.146;2022-12-18T10:23:04;14.50;;;6.22;;
69569;SDS011;56781;42.292;23.146;2022-12-18T10:28:29;11.57;;;5.05;;
69569;SDS011;56781;42.292;23.146;2022-12-18T10:30:58;13.27;;;6.13;;
69569;SDS011;56781;42.292;23.146;2022-12-18T10:33:28;12.48;;;5.18;;
69569;SDS011;56781;42.292;23.146;2022-12-18T10:35:56;13.00;;;5.68;;
69569;SDS011;56781;42.292;23.146;2022-12-18T10:38:25;8.80;;;3.90;;
69569;SDS011;56781;42.292;23.146;2022-12-18T10:40:57;11.93;;;5.10;;
69569;SDS011;56781;42.292;23.146;2022-12-18T10:43:36;8.18;;;3.72;;
69569;SDS011;56781;42.292;23.146;2022-12-18T10:46:10;17.05;;;6.05;;
69569;SDS011;56781;42.292;23.146;2022-12-18T10:51:21;13.90;;;5.53;;
69569;SDS011;56781;42.292;23.146;2022-12-18T10:53:52;15.20;;;6.55;;
69569;SDS011;56781;42.292;23.146;2022-12-18T10:56:23;15.55;;;5.95;;
69569;SDS011;56781;42.292;23.146;2022-12-18T10:58:57;13.38;;;6.22;;
69569;SDS011;56781;42.292;23.146;2022-12-18T11:01:34;20.65;;;6.32;;
69569;SDS011;56781;42.292;23.146;2022-12-18T11:07:16;15.35;;;5.97;;
69569;SDS011;56781;42.292;23.146;2022-12-18T11:09:43;13.00;;;5.22;;
69569;SDS011;56781;42.292;23.146;2022-12-18T11:12:29;11.07;;;4.60;;
69569;SDS011;56781;42.292;23.146;2022-12-18T11:14:57;15.88;;;6.65;;
69569;SDS011;56781;42.292;23.146;2022-12-18T11:17:28;14.03;;;6.07;;
69569;SDS011;56781;42.292;23.146;2022-12-18T11:20:03;16.45;;;7.22;;
69569;SDS011;56781;42.292;23.146;2022-12-18T11:22:33;12.50;;;5.32;;
69569;SDS011;56781;42.292;23.146;2022-12-18T11:25:07;14.95;;;5.82;;
69569;SDS011;56781;42.292;23.146;2022-12-18T11:27:59;16.58;;;5.88;;
69569;SDS011;56781;42.292;23.146;2022-12-18T11:30:32;15.83;;;5.43;;
69569;SDS011;56781;42.292;23.146;2022-12-18T11:38:23;9.40;;;4.35;;
69569;SDS011;56781;42.292;23.146;2022-12-18T11:43:44;11.07;;;4.67;;
69569;SDS011;56781;42.292;23.146;2022-12-18T11:46:23;12.82;;;5.28;;
69569;SDS011;56781;42.292;23.146;2022-12-18T11:49:07;11.13;;;5.05;;
69569;SDS011;56781;42.292;23.146;2022-12-18T11:54:17;13.20;;;5.15;;
69569;SDS011;56781;42.292;23.146;2022-12-18T12:16:45;14.82;;;6.13;;
69569;SDS011;56781;42.292;23.146;2022-12-18T12:22:08;20.42;;;7.13;;
69569;SDS011;56781;42.292;23.146;2022-12-18T12:39:34;12.97;;;5.90;;
69569;SDS011;56781;42.292;23.146;2022-12-18T12:42:04;17.75;;;7.68;;
69569;SDS011;56781;42.292;23.146;2022-12-18T12:44:56;16.98;;;7.30;;
69569;SDS011;56781;42.292;23.146;2022-12-18T12:47:35;14.27;;;6.15;;
69569;SDS011;56781;42.292;23.146;2022-12-18T12:50:12;16.17;;;5.93;;
69569;SDS011;56781;42.292;23.146;2022-12-18T12:52:44;14.90;;;6.27;;
69569;SDS011;56781;42.292;23.146;2022-12-18T12:55:16;16.30;;;7.25;;
69569;SDS011;56781;42.292;23.146;2022-12-18T12:58:04;15.88;;;5.82;;
69569;SDS011;56781;42.292;23.146;2022-12-18T13:00:44;12.85;;;5.43;;
69569;SDS011;56781;42.292;23.146;2022-12-18T13:06:19;14.90;;;6.43;;
69569;SDS011;56781;42.292;23.146;2022-12-18T13:08:56;14.25;;;5.65;;
69569;SDS011;56781;42.292;23.146;2022-12-18T13:11:30;13.00;;;5.47;;
69569;SDS011;56781;42.292;23.146;2022-12-18T13:19:52;8.80;;;3.37;;
69569;SDS011;56781;42.292;23.146;2022-12-18T13:22:37;13.05;;;4.55;;
69569;SDS011;56781;42.292;23.146;2022-12-18T13:28:01;12.73;;;5.35;;
69569;SDS011;56781;42.292;23.146;2022-12-18T13:41:02;9.70;;;4.32;;
69569;SDS011;56781;42.292;23.146;2022-12-18T13:43:48;15.07;;;5.32;;
69569;SDS011;56781;42.292;23.146;2022-12-18T13:49:05;11.55;;;4.25;;
69569;SDS011;56781;42.292;23.146;2022-12-18T13:51:47;13.50;;;4.97;;
69569;SDS011;56781;42.292;23.146;2022-12-18T13:56:56;11.88;;;4.97;;
69569;SDS011;56781;42.292;23.146;2022-12-18T14:02:04;12.65;;;4.90;;
69569;SDS011;56781;42.292;23.146;2022-12-18T14:04:40;15.45;;;4.70;;
69569;SDS011;56781;42.292;23.146;2022-12-18T14:07:10;14.70;;;5.32;;
69569;SDS011;56781;42.292;23.146;2022-12-18T14:09:43;12.55;;;4.60;;
69569;SDS011;56781;42.292;23.146;2022-12-18T14:12:16;8.50;;;3.73;;
69569;SDS011;56781;42.292;23.146;2022-12-18T14:15:06;13.25;;;4.47;;
69569;SDS011;56781;42.292;23.146;2022-12-18T14:17:49;10.90;;;3.92;;
69569;SDS011;56781;42.292;23.146;2022-12-18T14:20:17;14.40;;;5.32;;
69569;SDS011;56781;42.292;23.146;2022-12-18T14:22:45;10.32;;;4.65;;
69569;SDS011;56781;42.292;23.146;2022-12-18T14:25:16;10.47;;;3.93;;
69569;SDS011;56781;42.292;23.146;2022-12-18T14:30:40;12.15;;;4.28;;
69569;SDS011;56781;42.292;23.146;2022-12-18T14:33:10;14.35;;;4.65;;
69569;SDS011;56781;42.292;23.146;2022-12-18T14:35:40;12.25;;;5.22;;
69569;SDS011;56781;42.292;23.146;2022-12-18T14:38:36;11.53;;;4.27;;
69569;SDS011;56781;42.292;23.146;2022-12-18T14:43:32;11.68;;;4.43;;
69569;SDS011;56781;42.292;23.146;2022-12-18T14:46:01;10.10;;;4.15;;
69569;SDS011;56781;42.292;23.146;2022-12-18T14:48:35;7.28;;;3.08;;
69569;SDS011;56781;42.292;23.146;2022-12-18T14:51:06;13.20;;;3.07;;
69569;SDS011;56781;42.292;23.146;2022-12-18T14:53:59;13.23;;;5.30;;
69569;SDS011;56781;42.292;23.146;2022-12-18T14:56:29;10.98;;;4.30;;
69569;SDS011;56781;42.292;23.146;2022-12-18T14:59:04;10.38;;;4.03;;
69569;SDS011;56781;42.292;23.146;2022-12-18T15:01:46;11.27;;;3.42;;
69569;SDS011;56781;42.292;23.146;2022-12-18T15:09:35;10.85;;;4.50;;
69569;SDS011;56781;42.292;23.146;2022-12-18T15:12:02;7.40;;;3.33;;
69569;SDS011;56781;42.292;23.146;2022-12-18T15:14:34;11.80;;;4.03;;
69569;SDS011;56781;42.292;23.146;2022-12-18T15:17:13;11.60;;;4.60;;
69569;SDS011;56781;42.292;23.146;2022-12-18T15:19:45;11.85;;;3.72;;
69569;SDS011;56781;42.292;23.146;2022-12-18T15:22:17;9.63;;;3.60;;
69569;SDS011;56781;42.292;23.146;2022-12-18T15:24:51;12.63;;;5.00;;
69569;SDS011;56781;42.292;23.146;2022-12-18T15:27:22;10.77;;;4.00;;
69569;SDS011;56781;42.292;23.146;2022-12-18T15:32:39;13.63;;;5.25;;
69569;SDS011;56781;42.292;23.146;2022-12-18T15:35:23;12.70;;;5.43;;
69569;SDS011;56781;42.292;23.146;2022-12-18T15:37:51;18.73;;;6.43;;
69569;SDS011;56781;42.292;23.146;2022-12-18T15:40:19;16.88;;;5.25;;
69569;SDS011;56781;42.292;23.146;2022-12-18T15:42:48;14.73;;;5.17;;
69569;SDS011;56781;42.292;23.146;2022-12-18T15:45:36;13.38;;;4.88;;
69569;SDS011;56781;42.292;23.146;2022-12-18T15:48:12;13.18;;;5.28;;
69569;SDS011;56781;42.292;23.146;2022-12-18T15:50:45;12.38;;;5.05;;
69569;SDS011;56781;42.292;23.146;2022-12-18T15:53:12;15.55;;;6.50;;
69569;SDS011;56781;42.292;23.146;2022-12-18T15:55:39;12.37;;;4.60;;
69569;SDS011;56781;42.292;23.146;2022-12-18T15:58:26;10.63;;;4.25;;
69569;SDS011;56781;42.292;23.146;2022-12-18T16:00:53;13.35;;;5.15;;
69569;SDS011;56781;42.292;23.146;2022-12-18T16:03:22;11.68;;;4.60;;
69569;SDS011;56781;42.292;23.146;2022-12-18T16:05:51;13.32;;;4.63;;
69569;SDS011;56781;42.292;23.146;2022-12-18T16:08:19;15.57;;;5.43;;
69569;SDS011;56781;42.292;23.146;2022-12-18T16:10:46;12.20;;;5.10;;
69569;SDS011;56781;42.292;23.146;2022-12-18T16:13:14;12.77;;;4.35;;
69569;SDS011;56781;42.292;23.146;2022-12-18T16:15:45;14.60;;;5.40;;
69569;SDS011;56781;42.292;23.146;2022-12-18T16:18:12;8.93;;;3.55;;
69569;SDS011;56781;42.292;23.146;2022-12-18T16:20:39;10.20;;;4.53;;
69569;SDS011;56781;42.292;23.146;2022-12-18T16:23:07;10.98;;;4.45;;
69569;SDS011;56781;42.292;23.146;2022-12-18T16:25:34;11.18;;;4.47;;
69569;SDS011;56781;42.292;23.146;2022-12-18T16:28:01;14.23;;;5.18;;
69569;SDS011;56781;42.292;23.146;2022-12-18T16:30:29;11.05;;;4.10;;
69569;SDS011;56781;42.292;23.146;2022-12-18T16:33:04;9.10;;;4.20;;
69569;SDS011;56781;42.292;23.146;2022-12-18T16:35:33;11.10;;;4.47;;
69569;SDS011;56781;42.292;23.146;2022-12-18T16:38:03;11.40;;;4.68;;
69569;SDS011;56781;42.292;23.146;2022-12-18T16:40:31;8.70;;;3.67;;
69569;SDS011;56781;42.292;23.146;2022-12-18T16:42:59;17.77;;;5.75;;
69569;SDS011;56781;42.292;23.146;2022-12-18T16:45:26;15.87;;;5.53;;
69569;SDS011;56781;42.292;23.146;2022-12-18T16:47:59;14.57;;;5.30;;
69569;SDS011;56781;42.292;23.146;2022-12-18T16:50:26;13.10;;;5.57;;
69569;SDS011;56781;42.292;23.146;2022-12-18T16:52:53;19.30;;;7.13;;
69569;SDS011;56781;42.292;23.146;2022-12-18T16:55:20;16.88;;;6.28;;
69569;SDS011;56781;42.292;23.146;2022-12-18T16:57:47;19.47;;;7.00;;
69569;SDS011;56781;42.292;23.146;2022-12-18T17:00:15;17.58;;;6.82;;
69569;SDS011;56781;42.292;23.146;2022-12-18T17:02:42;18.98;;;6.70;;
69569;SDS011;56781;42.292;23.146;2022-12-18T17:05:10;15.05;;;6.15;;
69569;SDS011;56781;42.292;23.146;2022-12-18T17:07:37;11.10;;;4.45;;
69569;SDS011;56781;42.292;23.146;2022-12-18T17:10:04;12.43;;;4.77;;